createdAt,value
2023-02-16T00:01:24.129Z,100076.59
2023-02-16T00:03:53.113Z,100066.47
2023-02-16T00:06:21.361Z,100078.94
2023-02-16T00:08:50.674Z,100073.41
2023-02-16T00:11:38.169Z,100077.63
2023-02-16T00:14:09.002Z,100077.13
2023-02-16T00:16:39.014Z,100086.03
2023-02-16T00:19:16.692Z,100078.31
2023-02-16T00:21:45.025Z,100077.31
2023-02-16T00:24:13.451Z,100078.31
2023-02-16T00:26:42.262Z,100078.47
2023-02-16T00:29:12.594Z,100074.94
2023-02-16T00:31:43.294Z,100078.31
2023-02-16T00:34:24.131Z,100083.03
2023-02-16T00:36:54.664Z,100075.28
2023-02-16T00:39:25.514Z,100073.59
2023-02-16T00:41:55.034Z,100088.59
2023-02-16T00:44:29.090Z,100090.78
2023-02-16T00:47:00.314Z,100089.09
2023-02-16T00:49:30.837Z,100085.38
2023-02-16T00:51:59.207Z,100083.53
2023-02-16T00:54:27.341Z,100087.78
2023-02-16T00:56:55.614Z,100095.69
2023-02-16T00:59:24.553Z,100085.44
2023-02-16T01:01:53.130Z,100074.81
2023-02-16T01:04:24.949Z,100072.78
2023-02-16T01:07:10.513Z,100070.09
2023-02-16T01:09:56.154Z,100081.06
2023-02-16T01:12:24.464Z,100087.78
2023-02-16T01:14:54.696Z,100084.44
2023-02-16T01:17:24.182Z,100079.19
2023-02-16T01:19:56.566Z,100072.97
2023-02-16T01:22:24.709Z,100076.66
2023-02-16T01:24:52.882Z,100076.31
2023-02-16T01:27:21.126Z,100080.06
2023-02-16T01:29:49.251Z,100078.38
2023-02-16T01:32:17.522Z,100082.75
2023-02-16T01:34:45.728Z,100090.34
2023-02-16T01:37:17.552Z,100093.84
2023-02-16T01:39:46.018Z,100086.78
2023-02-16T01:42:30.809Z,100086.47
2023-02-16T01:45:03.498Z,100093.69
2023-02-16T01:47:35.749Z,100096.03
2023-02-16T01:50:14.981Z,100096.03
2023-02-16T01:52:45.385Z,100093.50
2023-02-16T01:55:16.454Z,100093.19
2023-02-16T01:57:46.475Z,100089.47
2023-02-16T02:00:16.620Z,100092.88
2023-02-16T02:02:47.869Z,100095.22
2023-02-16T02:05:36.727Z,100086.25
2023-02-16T02:08:18.237Z,100080.72
2023-02-16T02:10:52.635Z,100081.38
2023-02-16T02:13:23.243Z,100070.25
2023-02-16T02:15:51.730Z,100086.28
2023-02-16T02:18:19.816Z,100080.03
2023-02-16T02:21:15.960Z,100084.09
2023-02-16T02:23:50.337Z,100087.78
2023-02-16T02:26:48.493Z,100093.69
2023-02-16T02:29:35.282Z,100094.19
2023-02-16T02:32:10.543Z,100081.88
2023-02-16T02:34:50.202Z,100096.72
2023-02-16T02:37:22.492Z,100095.19
2023-02-16T02:39:57.519Z,100099.22
2023-02-16T02:42:30.973Z,100102.25
2023-02-16T02:45:00.596Z,100097.19
2023-02-16T02:47:39.934Z,100102.06
2023-02-16T02:50:27.796Z,100107.63
2023-02-16T02:52:56.273Z,100096.66
2023-02-16T02:55:41.862Z,100103.56
2023-02-16T02:58:28.315Z,100103.22
2023-02-16T03:00:57.220Z,100116.53
2023-02-16T03:03:32.101Z,100133.25
2023-02-16T03:06:02.868Z,100123.47
2023-02-16T03:08:33.220Z,100132.91
2023-02-16T03:11:21.041Z,100139.97
2023-02-16T03:13:52.793Z,100143.88
2023-02-16T03:16:23.629Z,100145.34
2023-02-16T03:19:11.368Z,100149.94
2023-02-16T03:21:57.351Z,100145.03
2023-02-16T03:24:47.832Z,100153.81
2023-02-16T03:27:35.474Z,100140.94
2023-02-16T03:30:04.973Z,100139.28
2023-02-16T03:32:33.264Z,100128.50
2023-02-16T03:35:02.933Z,100123.75
2023-02-16T03:37:31.210Z,100127.97
2023-02-16T03:40:16.662Z,100115.66
2023-02-16T03:42:49.568Z,100118.16
2023-02-16T03:45:18.762Z,100115.66
2023-02-16T03:47:47.106Z,100117.81
2023-02-16T03:50:17.014Z,100126.09
2023-02-16T03:52:45.078Z,100127.78
2023-02-16T03:55:13.359Z,100127.78
2023-02-16T03:57:41.413Z,100125.78
2023-02-16T04:00:09.865Z,100125.78
2023-02-16T04:02:44.729Z,100123.72
2023-02-16T04:05:12.774Z,100124.56
2023-02-16T04:07:42.672Z,100129.13
2023-02-16T04:10:10.976Z,100124.91
2023-02-16T04:12:37.939Z,100128.47
2023-02-16T04:15:08.308Z,100127.44
2023-02-16T04:17:36.800Z,100140.75
2023-02-16T04:20:05.766Z,100144.97
2023-02-16T04:22:33.796Z,100149.56
2023-02-16T04:25:03.372Z,100143.28
2023-02-16T04:27:31.560Z,100152.25
2023-02-16T04:29:59.762Z,100161.88
2023-02-16T04:32:27.979Z,100164.56
2023-02-16T04:34:56.038Z,100177.22
2023-02-16T04:37:24.201Z,100175.38
2023-02-16T04:39:52.298Z,100178.22
2023-02-16T04:42:21.839Z,100176.56
2023-02-16T04:44:50.114Z,100180.78
2023-02-16T04:47:18.278Z,100168.94
2023-02-16T04:49:48.071Z,100174.50
2023-02-16T04:52:18.067Z,100175.38
2023-02-16T04:54:46.305Z,100172.81
2023-02-16T04:57:14.739Z,100162.88
2023-02-16T04:59:44.312Z,100171.81
2023-02-16T05:02:12.367Z,100173.69
2023-02-16T05:04:42.187Z,100167.28
2023-02-16T05:07:10.319Z,100165.56
2023-02-16T05:09:38.448Z,100168.63
2023-02-16T05:12:24.001Z,100163.88
2023-02-16T05:14:53.520Z,100165.41
2023-02-16T05:17:22.710Z,100170.13
2023-02-16T05:19:52.219Z,100179.09
2023-02-16T05:22:20.765Z,100175.69
2023-02-16T05:24:49.042Z,100171.97
2023-02-16T05:27:18.017Z,100172.81
2023-02-16T05:29:46.342Z,100179.44
2023-02-16T05:32:16.033Z,100185.66
2023-02-16T05:34:45.041Z,100202.22
2023-02-16T05:37:13.719Z,100208.44
2023-02-16T05:39:41.916Z,100215.03
2023-02-16T05:42:10.271Z,100205.94
2023-02-16T05:44:39.116Z,100211.50
2023-02-16T05:47:07.380Z,100213.53
2023-02-16T05:49:37.150Z,100213.38
2023-02-16T05:52:05.290Z,100215.56
2023-02-16T05:54:33.504Z,100216.91
2023-02-16T05:57:01.611Z,100233.28
2023-02-16T05:59:29.796Z,100238.03
2023-02-16T06:01:58.067Z,100235.84
2023-02-16T06:04:26.295Z,100243.41
2023-02-16T06:06:56.085Z,100235.16
2023-02-16T06:09:24.161Z,100230.78
2023-02-16T06:11:52.232Z,100226.72
2023-02-16T06:14:21.740Z,100236.53
2023-02-16T06:16:51.558Z,100242.41
2023-02-16T06:19:20.583Z,100246.31
2023-02-16T06:21:49.206Z,100244.59
2023-02-16T06:24:18.614Z,100244.25
2023-02-16T06:26:46.661Z,100248.97
2023-02-16T06:29:14.760Z,100246.94
2023-02-16T06:31:43.295Z,100246.94
2023-02-16T06:34:11.511Z,100251.50
2023-02-16T06:36:42.383Z,100265.50
2023-02-16T06:39:10.754Z,100263.31
2023-02-16T06:41:41.245Z,100266.88
2023-02-16T06:44:12.478Z,100264.16
2023-02-16T06:46:40.785Z,100268.88
2023-02-16T06:49:09.013Z,100274.97
2023-02-16T06:51:37.038Z,100285.56
2023-02-16T06:54:05.539Z,100275.44
2023-02-16T06:56:35.428Z,100269.75
2023-02-16T06:59:06.303Z,100268.88
2023-02-16T07:01:34.583Z,100267.69
2023-02-16T07:04:02.679Z,100261.78
2023-02-16T07:06:31.015Z,100255.72
2023-02-16T07:09:00.387Z,100260.75
2023-02-16T07:11:28.426Z,100252.50
2023-02-16T07:13:56.495Z,100252.00
2023-02-16T07:16:26.152Z,100258.56
2023-02-16T07:18:54.410Z,100264.50
2023-02-16T07:21:22.765Z,100276.78
2023-02-16T07:23:50.908Z,100278.63
2023-02-16T07:26:19.222Z,100277.63
2023-02-16T07:28:47.307Z,100270.88
2023-02-16T07:31:16.642Z,100272.72
2023-02-16T07:33:46.228Z,100273.72
2023-02-16T07:36:14.809Z,100288.56
2023-02-16T07:38:43.167Z,100295.09
2023-02-16T07:41:11.648Z,100301.53
2023-02-16T07:43:42.860Z,100304.88
2023-02-16T07:46:11.425Z,100311.28
2023-02-16T07:48:39.645Z,100319.69
2023-02-16T07:51:09.352Z,100323.56
2023-02-16T07:53:37.483Z,100328.38
2023-02-16T07:56:05.978Z,100333.31
2023-02-16T07:58:34.178Z,100330.41
2023-02-16T08:01:09.006Z,100349.66
2023-02-16T08:03:38.937Z,100349.13
2023-02-16T08:06:08.749Z,100351.66
2023-02-16T08:08:45.941Z,100351.66
2023-02-16T08:11:17.870Z,100366.34
2023-02-16T08:13:46.505Z,100376.91
2023-02-16T08:16:15.872Z,100360.75
2023-02-16T08:18:44.208Z,100360.06
2023-02-16T08:21:15.095Z,100347.59
2023-02-16T08:23:47.706Z,100365.63
2023-02-16T08:26:20.080Z,100383.34
2023-02-16T08:28:50.237Z,100380.63
2023-02-16T08:31:19.302Z,100382.63
2023-02-16T08:33:49.240Z,100391.09
2023-02-16T08:36:20.600Z,100396.97
2023-02-16T08:38:52.228Z,100409.25
2023-02-16T08:41:20.975Z,100407.91
2023-02-16T08:43:49.708Z,100416.03
2023-02-16T08:46:18.516Z,100435.94
2023-02-16T08:48:47.546Z,100431.16
2023-02-16T08:51:16.349Z,100445.28
2023-02-16T08:53:44.551Z,100444.88
2023-02-16T08:56:14.624Z,100453.66
2023-02-16T08:58:45.950Z,100468.13
2023-02-16T09:01:15.517Z,100477.84
2023-02-16T09:03:46.292Z,100481.53
2023-02-16T09:06:15.735Z,100475.00
2023-02-16T09:08:44.809Z,100474.50
2023-02-16T09:11:15.653Z,100477.00
2023-02-16T09:13:44.813Z,100484.22
2023-02-16T09:16:14.223Z,100477.53
2023-02-16T09:18:45.075Z,100468.53
2023-02-16T09:21:15.112Z,100477.22
2023-02-16T09:23:48.218Z,100481.59
2023-02-16T09:26:18.586Z,100488.16
2023-02-16T09:28:47.467Z,100486.88
2023-02-16T09:31:16.653Z,100481.91
2023-02-16T09:33:45.575Z,100469.53
2023-02-16T09:36:14.379Z,100460.22
2023-02-16T09:38:43.368Z,100486.38
2023-02-16T09:41:19.873Z,100487.84
2023-02-16T09:43:52.551Z,100485.38
2023-02-16T09:46:23.039Z,100488.03
2023-02-16T09:48:52.951Z,100498.75
2023-02-16T09:51:29.514Z,100496.69
2023-02-16T09:54:05.446Z,100510.41
2023-02-16T09:56:37.934Z,100516.81
2023-02-16T09:59:12.863Z,100516.09
2023-02-16T10:01:45.717Z,100525.19
2023-02-16T10:04:27.614Z,100524.69
2023-02-16T10:07:04.058Z,100526.69
2023-02-16T10:09:34.226Z,100525.31
2023-02-16T10:12:05.891Z,100521.56
2023-02-16T10:14:41.394Z,100520.28
2023-02-16T10:17:15.316Z,100528.19
2023-02-16T10:19:48.191Z,100537.47
2023-02-16T10:22:18.977Z,100532.63
2023-02-16T10:24:52.164Z,100548.19
2023-02-16T10:27:23.273Z,100554.28
2023-02-16T10:29:53.286Z,100556.19
2023-02-16T10:32:26.270Z,100567.50
2023-02-16T10:34:59.750Z,100579.34
2023-02-16T10:37:40.986Z,100567.16
2023-02-16T10:40:19.411Z,100551.78
2023-02-16T10:42:53.610Z,100527.78
2023-02-16T10:45:27.354Z,100530.69
2023-02-16T10:47:55.707Z,100517.31
2023-02-16T10:50:25.405Z,100523.91
2023-02-16T10:52:56.332Z,100515.44
2023-02-16T10:55:24.681Z,100526.72
2023-02-16T10:57:56.046Z,100521.63
2023-02-16T11:00:30.456Z,100518.94
2023-02-16T11:02:58.557Z,100510.31
2023-02-16T11:05:32.424Z,100505.94
2023-02-16T11:08:02.157Z,100496.66
2023-02-16T11:10:42.187Z,100503.13
2023-02-16T11:13:20.258Z,100509.03
2023-02-16T11:15:54.673Z,100511.91
2023-02-16T11:18:27.303Z,100506.28
2023-02-16T11:20:56.523Z,100493.22
2023-02-16T11:23:26.928Z,100491.38
2023-02-16T11:25:56.620Z,100488.41
2023-02-16T11:28:32.085Z,100496.81
2023-02-16T11:31:11.629Z,100488.06
2023-02-16T11:33:41.594Z,100471.97
2023-02-16T11:36:25.795Z,100475.66
2023-02-16T11:38:58.316Z,100467.06
2023-02-16T11:41:27.398Z,100452.94
2023-02-16T11:43:56.503Z,100453.13
2023-02-16T11:46:27.023Z,100458.66
2023-02-16T11:48:55.467Z,100445.38
2023-02-16T11:51:34.603Z,100420.72
2023-02-16T11:54:05.704Z,100417.50
2023-02-16T11:56:37.552Z,100403.38
2023-02-16T11:59:07.584Z,100416.75
2023-02-16T12:01:47.153Z,100434.81
2023-02-16T12:04:23.533Z,100455.16
2023-02-16T12:06:55.446Z,100458.38
2023-02-16T12:09:31.002Z,100458.38
2023-02-16T12:12:04.751Z,100466.81
2023-02-16T12:14:41.395Z,100475.19
2023-02-16T12:17:21.798Z,100464.44
2023-02-16T12:19:53.546Z,100464.41
2023-02-16T12:22:27.583Z,100465.34
2023-02-16T12:25:04.022Z,100461.38
2023-02-16T12:27:34.847Z,100468.75
2023-02-16T12:30:09.930Z,100459.63
2023-02-16T12:32:47.039Z,100448.03
2023-02-16T12:35:28.853Z,100433.91
2023-02-16T12:38:03.664Z,100449.72
2023-02-16T12:40:39.208Z,100435.84
2023-02-16T12:43:16.661Z,100432.34
2023-02-16T12:45:47.367Z,100435.28
2023-02-16T12:48:24.474Z,100421.31
2023-02-16T12:50:54.381Z,100437.06
2023-02-16T12:53:27.727Z,100432.84
2023-02-16T12:55:57.790Z,100432.41
2023-02-16T12:58:27.702Z,100413.75
2023-02-16T13:00:58.837Z,100427.06
2023-02-16T13:03:34.821Z,100427.19
2023-02-16T13:06:08.713Z,100422.72
2023-02-16T13:08:40.971Z,100413.75
2023-02-16T13:11:12.827Z,100411.97
2023-02-16T13:13:42.051Z,100413.41
2023-02-16T13:16:29.087Z,100423.75
2023-02-16T13:19:00.204Z,100428.81
2023-02-16T13:21:50.528Z,100412.59
2023-02-16T13:24:24.661Z,100411.75
2023-02-16T13:27:01.282Z,100409.06
2023-02-16T13:29:41.453Z,100415.81
2023-02-16T13:32:19.295Z,100410.88
2023-02-16T13:35:00.281Z,100413.16
2023-02-16T13:37:35.609Z,100414.03
2023-02-16T13:40:18.737Z,100424.81
2023-02-16T13:42:54.074Z,100419.22
2023-02-16T13:45:22.869Z,100409.81
2023-02-16T13:47:53.371Z,100405.09
2023-02-16T13:50:40.828Z,100396.47
2023-02-16T13:53:24.685Z,100395.28
2023-02-16T13:56:13.110Z,100402.38
2023-02-16T13:58:41.979Z,100395.81
2023-02-16T14:01:36.724Z,100387.69
2023-02-16T14:04:05.202Z,100377.31
2023-02-16T14:06:37.168Z,100378.19
2023-02-16T14:09:24.516Z,100367.81
2023-02-16T14:12:04.844Z,100389.66
2023-02-16T14:14:35.126Z,100380.34
2023-02-16T14:17:17.148Z,100380.38
2023-02-16T14:19:50.939Z,100380.81
2023-02-16T14:22:21.933Z,100380.06
2023-02-16T14:24:53.863Z,100376.22
2023-02-16T14:27:56.455Z,100362.41
2023-02-16T14:30:28.348Z,100355.09
2023-02-16T14:33:00.608Z,100357.81
2023-02-16T14:35:30.981Z,100351.75
2023-02-16T14:38:00.131Z,100348.31
2023-02-16T14:40:42.421Z,100342.16
2023-02-16T14:43:21.606Z,100345.72
2023-02-16T14:46:13.809Z,100348.91
2023-02-16T14:48:55.812Z,100357.34
2023-02-16T14:51:36.277Z,100351.59
2023-02-16T14:54:16.668Z,100341.81
2023-02-16T14:56:47.292Z,100346.31
2023-02-16T14:59:25.068Z,100340.34
2023-02-16T15:01:53.245Z,100349.66
2023-02-16T15:04:29.373Z,100358.47
2023-02-16T15:06:59.368Z,100359.31
2023-02-16T15:09:31.261Z,100358.47
2023-02-16T15:12:18.048Z,100362.16
2023-02-16T15:14:49.230Z,100367.38
2023-02-16T15:17:24.425Z,100369.13
2023-02-16T15:19:53.738Z,100362.97
2023-02-16T15:22:22.758Z,100360.00
2023-02-16T15:25:01.256Z,100375.81
2023-02-16T15:27:30.220Z,100365.16
2023-02-16T15:30:12.104Z,100373.19
2023-02-16T15:32:41.296Z,100373.75
2023-02-16T15:35:14.098Z,100371.06
2023-02-16T15:37:42.256Z,100372.00
2023-02-16T15:40:30.433Z,100371.34
2023-02-16T15:43:01.766Z,100366.28
2023-02-16T15:45:32.593Z,100358.63
2023-02-16T15:48:24.942Z,100362.50
2023-02-16T15:50:54.778Z,100364.22
2023-02-16T15:53:33.711Z,100379.72
2023-02-16T15:56:04.428Z,100374.31
2023-02-16T15:58:33.844Z,100366.19
2023-02-16T16:01:03.727Z,100375.91
2023-02-16T16:03:31.984Z,100373.56
2023-02-16T16:06:05.235Z,100370.59
2023-02-16T16:08:33.925Z,100373.78
2023-02-16T16:11:02.658Z,100389.31
2023-02-16T16:13:32.184Z,100394.38
2023-02-16T16:16:01.964Z,100390.25
2023-02-16T16:18:50.307Z,100391.84
2023-02-16T16:21:20.658Z,100387.84
2023-02-16T16:23:56.751Z,100386.16
2023-02-16T16:26:26.135Z,100384.75
2023-02-16T16:28:54.856Z,100392.16
2023-02-16T16:31:42.958Z,100396.38
2023-02-16T16:34:31.898Z,100394.84
2023-02-16T16:37:02.678Z,100404.97
2023-02-16T16:39:32.351Z,100406.00
2023-02-16T16:42:18.532Z,100396.81
2023-02-16T16:44:54.658Z,100398.88
2023-02-16T16:47:27.818Z,100393.09
2023-02-16T16:49:58.360Z,100397.19
2023-02-16T16:52:34.020Z,100385.69
2023-02-16T16:55:02.153Z,100389.63
2023-02-16T16:57:31.039Z,100393.34
2023-02-16T16:59:59.150Z,100397.56
2023-02-16T17:02:27.736Z,100404.88
2023-02-16T17:04:57.665Z,100417.44
2023-02-16T17:07:34.948Z,100419.66
2023-02-16T17:10:12.259Z,100416.44
2023-02-16T17:12:40.414Z,100429.19
2023-02-16T17:15:22.287Z,100435.28
2023-02-16T17:17:50.782Z,100432.91
2023-02-16T17:20:21.711Z,100431.63
2023-02-16T17:22:53.152Z,100433.97
2023-02-16T17:25:21.650Z,100434.34
2023-02-16T17:27:49.964Z,100430.38
2023-02-16T17:30:21.401Z,100429.44
2023-02-16T17:32:53.059Z,100436.06
2023-02-16T17:35:23.205Z,100442.53
2023-02-16T17:37:51.732Z,100437.13
2023-02-16T17:40:21.108Z,100441.59
2023-02-16T17:42:49.940Z,100440.53
2023-02-16T17:45:20.681Z,100446.91
2023-02-16T17:47:51.481Z,100450.63
2023-02-16T17:50:20.821Z,100459.25
2023-02-16T17:52:50.330Z,100456.03
2023-02-16T17:55:19.113Z,100458.25
2023-02-16T17:57:47.184Z,100461.78
2023-02-16T18:00:19.008Z,100471.13
2023-02-16T18:02:47.912Z,100474.84
2023-02-16T18:05:16.394Z,100469.72
2023-02-16T18:07:44.553Z,100485.00
2023-02-16T18:10:20.913Z,100493.13
2023-02-16T18:12:49.010Z,100492.25
2023-02-16T18:15:17.189Z,100500.28
2023-02-16T18:17:45.396Z,100507.56
2023-02-16T18:20:15.998Z,100508.44
2023-02-16T18:22:44.186Z,100520.34
2023-02-16T18:25:12.730Z,100526.13
2023-02-16T18:27:42.884Z,100515.28
2023-02-16T18:30:12.718Z,100520.34
2023-02-16T18:32:41.969Z,100522.41
2023-02-16T18:35:11.658Z,100513.59
2023-02-16T18:37:40.479Z,100510.97
2023-02-16T18:40:11.561Z,100512.63
2023-02-16T18:42:40.412Z,100507.03
2023-02-16T18:45:11.293Z,100505.53
2023-02-16T18:47:40.020Z,100501.13
2023-02-16T18:50:08.607Z,100510.97
2023-02-16T18:52:36.708Z,100507.22
2023-02-16T18:55:04.887Z,100511.63
2023-02-16T18:57:32.933Z,100523.47
2023-02-16T19:00:00.940Z,100515.66
2023-02-16T19:02:30.457Z,100517.38
2023-02-16T19:04:58.957Z,100516.06
2023-02-16T19:07:27.084Z,100511.63
2023-02-16T19:09:55.121Z,100507.75
2023-02-16T19:12:23.437Z,100512.47
2023-02-16T19:14:51.589Z,100510.97
2023-02-16T19:17:19.814Z,100508.44
2023-02-16T19:19:49.504Z,100507.41
2023-02-16T19:22:18.738Z,100508.81
2023-02-16T19:24:49.470Z,100517.75
2023-02-16T19:27:19.289Z,100506.78
2023-02-16T19:29:48.722Z,100516.94
2023-02-16T19:32:19.252Z,100503.06
2023-02-16T19:34:49.529Z,100500.91
2023-02-16T19:37:18.437Z,100513.34
2023-02-16T19:39:47.292Z,100509.69
2023-02-16T19:42:15.593Z,100512.38
2023-02-16T19:44:43.540Z,100516.59
2023-02-16T19:47:11.727Z,100524.41
2023-02-16T19:49:40.012Z,100529.38
2023-02-16T19:52:09.938Z,100522.59
2023-02-16T19:54:37.969Z,100521.09
2023-02-16T19:57:06.318Z,100510.44
2023-02-16T19:59:34.358Z,100509.41
2023-02-16T20:02:02.724Z,100505.19
2023-02-16T20:04:31.012Z,100497.59
2023-02-16T20:06:59.213Z,100504.69
2023-02-16T20:09:29.291Z,100494.03
2023-02-16T20:11:57.473Z,100509.81
2023-02-16T20:14:25.484Z,100496.44
2023-02-16T20:16:53.557Z,100482.41
2023-02-16T20:19:21.822Z,100471.75
2023-02-16T20:21:50.233Z,100473.63
2023-02-16T20:24:18.311Z,100467.34
2023-02-16T20:26:49.208Z,100463.00
2023-02-16T20:29:17.394Z,100469.75
2023-02-16T20:31:48.994Z,100466.34
2023-02-16T20:34:17.520Z,100471.66
2023-02-16T20:36:45.653Z,100464.53
2023-02-16T20:39:13.901Z,100471.66
2023-02-16T20:41:42.132Z,100479.09
2023-02-16T20:44:12.280Z,100494.00
2023-02-16T20:46:40.765Z,100479.44
2023-02-16T20:49:09.356Z,100485.69
2023-02-16T20:51:37.868Z,100481.16
2023-02-16T20:54:06.400Z,100502.44
2023-02-16T20:56:34.605Z,100494.88
2023-02-16T20:59:02.916Z,100497.38
2023-02-16T21:01:33.856Z,100501.09
2023-02-16T21:04:02.226Z,100496.72
2023-02-16T21:06:30.775Z,100498.22
2023-02-16T21:08:58.944Z,100484.88
2023-02-16T21:11:27.242Z,100487.56
2023-02-16T21:13:55.475Z,100486.91
2023-02-16T21:16:23.599Z,100483.16
2023-02-16T21:18:53.089Z,100484.88
2023-02-16T21:21:21.369Z,100483.88
2023-02-16T21:23:50.878Z,100492.84
2023-02-16T21:26:19.549Z,100499.41
2023-02-16T21:28:47.926Z,100498.94
2023-02-16T21:31:17.584Z,100492.72
2023-02-16T21:33:46.111Z,100493.88
2023-02-16T21:36:16.549Z,100507.59
2023-02-16T21:38:44.996Z,100492.00
2023-02-16T21:41:25.616Z,100495.06
2023-02-16T21:43:55.270Z,100482.88
2023-02-16T21:46:23.702Z,100482.88
2023-02-16T21:48:50.743Z,100473.59
2023-02-16T21:51:21.497Z,100474.13
2023-02-16T21:53:49.850Z,100483.25
2023-02-16T21:56:33.404Z,100480.34
2023-02-16T21:59:01.866Z,100463.13
2023-02-16T22:01:30.715Z,100461.25
2023-02-16T22:04:00.431Z,100476.66
2023-02-16T22:06:32.315Z,100473.09
2023-02-16T22:09:00.860Z,100460.94
2023-02-16T22:11:29.504Z,100471.44
2023-02-16T22:13:58.109Z,100459.75
2023-02-16T22:16:27.023Z,100462.25
2023-02-16T22:18:58.054Z,100467.56
2023-02-16T22:21:26.748Z,100472.44
2023-02-16T22:23:56.598Z,100468.38
2023-02-16T22:26:26.200Z,100459.59
2023-02-16T22:28:54.598Z,100481.75
2023-02-16T22:31:24.593Z,100472.97
2023-02-16T22:33:56.660Z,100474.47
2023-02-16T22:36:24.836Z,100472.97
2023-02-16T22:38:54.558Z,100474.13
2023-02-16T22:41:24.639Z,100474.16
2023-02-16T22:43:53.365Z,100486.66
2023-02-16T22:46:21.530Z,100479.91
2023-02-16T22:48:49.943Z,100490.38
2023-02-16T22:51:18.964Z,100486.50
2023-02-16T22:53:47.186Z,100496.31
2023-02-16T22:56:16.274Z,100492.75
2023-02-16T22:58:45.800Z,100491.22
2023-02-16T23:01:15.317Z,100498.69
2023-02-16T23:03:43.887Z,100492.44
2023-02-16T23:06:13.159Z,100497.16
2023-02-16T23:08:41.356Z,100501.72
2023-02-16T23:11:09.459Z,100497.84
2023-02-16T23:13:37.672Z,100506.97
2023-02-16T23:16:08.810Z,100511.03
2023-02-16T23:18:36.902Z,100501.88
2023-02-16T23:21:06.218Z,100501.91
2023-02-16T23:23:34.639Z,100493.63
2023-02-16T23:26:02.791Z,100495.44
2023-02-16T23:28:30.882Z,100487.84
2023-02-16T23:30:59.068Z,100493.25
2023-02-16T23:33:28.758Z,100494.97
2023-02-16T23:35:57.069Z,100498.69
2023-02-16T23:38:25.453Z,100497.50
2023-02-16T23:40:57.223Z,100504.09
2023-02-16T23:43:25.564Z,100510.84
2023-02-16T23:45:53.881Z,100499.88
2023-02-16T23:48:22.316Z,100501.22
2023-02-16T23:50:52.560Z,100503.75
2023-02-16T23:53:21.090Z,100511.03
2023-02-16T23:55:57.482Z,100515.75
2023-02-16T23:58:26.426Z,100524.72
